sensor_id;sensor_type;location;lat;lon;timestamp;P1;durP1;ratioP1;P2;durP2;ratioP2
21665;SDS011;10994;45.486;9.190;2022-10-22T00:01:07;17.10;;;13.23;;
21665;SDS011;10994;45.486;9.190;2022-10-22T00:03:33;18.90;;;13.83;;
21665;SDS011;10994;45.486;9.190;2022-10-22T00:05:58;18.87;;;13.67;;
21665;SDS011;10994;45.486;9.190;2022-10-22T00:08:24;17.50;;;12.13;;
21665;SDS011;10994;45.486;9.190;2022-10-22T00:10:50;17.90;;;14.37;;
21665;SDS011;10994;45.486;9.190;2022-10-22T00:13:16;18.37;;;13.40;;
21665;SDS011;10994;45.486;9.190;2022-10-22T00:15:43;16.10;;;13.77;;
21665;SDS011;10994;45.486;9.190;2022-10-22T00:18:09;15.77;;;12.40;;
21665;SDS011;10994;45.486;9.190;2022-10-22T00:20:35;22.87;;;13.70;;
21665;SDS011;10994;45.486;9.190;2022-10-22T00:23:00;16.37;;;13.00;;
21665;SDS011;10994;45.486;9.190;2022-10-22T00:25:26;14.37;;;12.63;;
21665;SDS011;10994;45.486;9.190;2022-10-22T00:27:52;14.63;;;12.27;;
21665;SDS011;10994;45.486;9.190;2022-10-22T00:30:18;16.17;;;13.10;;
21665;SDS011;10994;45.486;9.190;2022-10-22T00:32:44;18.50;;;14.77;;
21665;SDS011;10994;45.486;9.190;2022-10-22T00:35:09;16.90;;;13.40;;
21665;SDS011;10994;45.486;9.190;2022-10-22T00:37:35;17.33;;;13.27;;
21665;SDS011;10994;45.486;9.190;2022-10-22T00:40:01;17.10;;;11.53;;
21665;SDS011;10994;45.486;9.190;2022-10-22T00:42:28;15.80;;;13.30;;
21665;SDS011;10994;45.486;9.190;2022-10-22T00:50:04;15.93;;;12.53;;
21665;SDS011;10994;45.486;9.190;2022-10-22T00:52:34;15.23;;;12.30;;
21665;SDS011;10994;45.486;9.190;2022-10-22T00:55:00;18.60;;;12.60;;
21665;SDS011;10994;45.486;9.190;2022-10-22T00:57:26;14.23;;;11.87;;
21665;SDS011;10994;45.486;9.190;2022-10-22T00:59:52;15.20;;;11.93;;
21665;SDS011;10994;45.486;9.190;2022-10-22T01:02:19;17.20;;;13.00;;
21665;SDS011;10994;45.486;9.190;2022-10-22T01:04:45;16.50;;;12.97;;
21665;SDS011;10994;45.486;9.190;2022-10-22T01:07:16;17.63;;;13.10;;
21665;SDS011;10994;45.486;9.190;2022-10-22T01:17:51;15.63;;;12.27;;
21665;SDS011;10994;45.486;9.190;2022-10-22T01:25:56;16.67;;;12.17;;
21665;SDS011;10994;45.486;9.190;2022-10-22T01:31:20;14.23;;;11.83;;
21665;SDS011;10994;45.486;9.190;2022-10-22T01:33:47;14.97;;;11.50;;
21665;SDS011;10994;45.486;9.190;2022-10-22T01:36:15;14.37;;;11.57;;
21665;SDS011;10994;45.486;9.190;2022-10-22T01:38:43;13.80;;;12.27;;
21665;SDS011;10994;45.486;9.190;2022-10-22T01:41:10;16.03;;;12.03;;
21665;SDS011;10994;45.486;9.190;2022-10-22T01:43:36;14.53;;;12.13;;
21665;SDS011;10994;45.486;9.190;2022-10-22T01:46:02;14.97;;;11.67;;
21665;SDS011;10994;45.486;9.190;2022-10-22T01:54:20;15.07;;;11.37;;
21665;SDS011;10994;45.486;9.190;2022-10-22T01:56:56;13.67;;;10.83;;
21665;SDS011;10994;45.486;9.190;2022-10-22T02:08:07;15.17;;;12.07;;
21665;SDS011;10994;45.486;9.190;2022-10-22T02:10:36;14.20;;;11.40;;
21665;SDS011;10994;45.486;9.190;2022-10-22T02:13:04;16.10;;;11.53;;
21665;SDS011;10994;45.486;9.190;2022-10-22T02:15:34;14.63;;;11.07;;
21665;SDS011;10994;45.486;9.190;2022-10-22T02:18:02;13.73;;;12.03;;
21665;SDS011;10994;45.486;9.190;2022-10-22T02:20:31;13.63;;;10.77;;
21665;SDS011;10994;45.486;9.190;2022-10-22T02:22:59;13.83;;;11.27;;
21665;SDS011;10994;45.486;9.190;2022-10-22T02:25:36;14.07;;;11.73;;
21665;SDS011;10994;45.486;9.190;2022-10-22T02:28:09;15.27;;;11.27;;
21665;SDS011;10994;45.486;9.190;2022-10-22T02:30:48;14.60;;;11.43;;
21665;SDS011;10994;45.486;9.190;2022-10-22T02:33:22;14.73;;;10.53;;
21665;SDS011;10994;45.486;9.190;2022-10-22T02:35:51;13.83;;;11.17;;
21665;SDS011;10994;45.486;9.190;2022-10-22T02:38:19;15.43;;;11.30;;
21665;SDS011;10994;45.486;9.190;2022-10-22T02:40:46;19.73;;;14.10;;
21665;SDS011;10994;45.486;9.190;2022-10-22T02:43:12;15.77;;;12.57;;
21665;SDS011;10994;45.486;9.190;2022-10-22T02:45:37;16.47;;;11.03;;
21665;SDS011;10994;45.486;9.190;2022-10-22T02:48:03;13.23;;;11.13;;
21665;SDS011;10994;45.486;9.190;2022-10-22T02:50:29;14.70;;;11.70;;
21665;SDS011;10994;45.486;9.190;2022-10-22T02:52:55;15.17;;;11.20;;
21665;SDS011;10994;45.486;9.190;2022-10-22T02:55:20;16.10;;;11.57;;
21665;SDS011;10994;45.486;9.190;2022-10-22T02:57:46;14.60;;;10.83;;
21665;SDS011;10994;45.486;9.190;2022-10-22T03:00:12;12.90;;;11.03;;
21665;SDS011;10994;45.486;9.190;2022-10-22T03:02:38;12.80;;;11.03;;
21665;SDS011;10994;45.486;9.190;2022-10-22T03:05:04;12.53;;;10.67;;
21665;SDS011;10994;45.486;9.190;2022-10-22T03:07:30;12.77;;;10.93;;
21665;SDS011;10994;45.486;9.190;2022-10-22T03:09:55;14.10;;;10.17;;
21665;SDS011;10994;45.486;9.190;2022-10-22T03:12:21;16.90;;;11.83;;
21665;SDS011;10994;45.486;9.190;2022-10-22T03:14:47;16.07;;;11.47;;
21665;SDS011;10994;45.486;9.190;2022-10-22T03:17:12;14.50;;;11.33;;
21665;SDS011;10994;45.486;9.190;2022-10-22T03:19:38;14.23;;;11.67;;
21665;SDS011;10994;45.486;9.190;2022-10-22T03:22:05;16.67;;;11.30;;
21665;SDS011;10994;45.486;9.190;2022-10-22T03:24:41;14.23;;;11.53;;
21665;SDS011;10994;45.486;9.190;2022-10-22T03:27:10;15.37;;;11.17;;
21665;SDS011;10994;45.486;9.190;2022-10-22T03:29:38;15.10;;;11.37;;
21665;SDS011;10994;45.486;9.190;2022-10-22T03:32:05;16.73;;;11.33;;
21665;SDS011;10994;45.486;9.190;2022-10-22T03:34:31;14.33;;;10.43;;
21665;SDS011;10994;45.486;9.190;2022-10-22T03:36:58;13.47;;;11.90;;
21665;SDS011;10994;45.486;9.190;2022-10-22T03:39:26;13.53;;;10.67;;
21665;SDS011;10994;45.486;9.190;2022-10-22T03:41:54;14.70;;;10.67;;
21665;SDS011;10994;45.486;9.190;2022-10-22T03:44:20;15.13;;;10.57;;
21665;SDS011;10994;45.486;9.190;2022-10-22T03:46:47;13.40;;;11.30;;
21665;SDS011;10994;45.486;9.190;2022-10-22T03:49:12;14.33;;;10.53;;
21665;SDS011;10994;45.486;9.190;2022-10-22T03:51:38;19.03;;;11.50;;
21665;SDS011;10994;45.486;9.190;2022-10-22T03:54:04;72.37;;;19.53;;
21665;SDS011;10994;45.486;9.190;2022-10-22T03:56:30;16.50;;;11.00;;
21665;SDS011;10994;45.486;9.190;2022-10-22T03:58:56;15.27;;;11.67;;
21665;SDS011;10994;45.486;9.190;2022-10-22T04:01:23;16.30;;;11.03;;
21665;SDS011;10994;45.486;9.190;2022-10-22T04:03:49;12.33;;;10.70;;
21665;SDS011;10994;45.486;9.190;2022-10-22T04:06:15;15.03;;;12.03;;
21665;SDS011;10994;45.486;9.190;2022-10-22T04:08:41;17.27;;;11.33;;
21665;SDS011;10994;45.486;9.190;2022-10-22T04:11:08;13.67;;;10.93;;
21665;SDS011;10994;45.486;9.190;2022-10-22T04:13:34;13.70;;;11.30;;
21665;SDS011;10994;45.486;9.190;2022-10-22T04:16:10;14.93;;;11.43;;
21665;SDS011;10994;45.486;9.190;2022-10-22T04:18:41;13.23;;;10.33;;
21665;SDS011;10994;45.486;9.190;2022-10-22T04:21:08;16.53;;;11.17;;
21665;SDS011;10994;45.486;9.190;2022-10-22T04:23:35;15.70;;;11.93;;
21665;SDS011;10994;45.486;9.190;2022-10-22T04:26:03;15.27;;;11.33;;
21665;SDS011;10994;45.486;9.190;2022-10-22T04:28:30;15.47;;;11.27;;
21665;SDS011;10994;45.486;9.190;2022-10-22T04:30:57;18.30;;;12.70;;
21665;SDS011;10994;45.486;9.190;2022-10-22T04:33:22;13.57;;;11.50;;
21665;SDS011;10994;45.486;9.190;2022-10-22T04:35:48;14.07;;;11.70;;
21665;SDS011;10994;45.486;9.190;2022-10-22T04:38:14;15.50;;;11.90;;
21665;SDS011;10994;45.486;9.190;2022-10-22T04:40:40;12.47;;;10.40;;
21665;SDS011;10994;45.486;9.190;2022-10-22T04:43:06;15.53;;;11.40;;
21665;SDS011;10994;45.486;9.190;2022-10-22T04:45:32;13.60;;;11.17;;
21665;SDS011;10994;45.486;9.190;2022-10-22T04:47:58;14.43;;;10.77;;
21665;SDS011;10994;45.486;9.190;2022-10-22T04:50:24;14.23;;;11.93;;
21665;SDS011;10994;45.486;9.190;2022-10-22T04:52:50;14.03;;;11.23;;
21665;SDS011;10994;45.486;9.190;2022-10-22T04:55:16;14.73;;;11.00;;
21665;SDS011;10994;45.486;9.190;2022-10-22T04:57:42;14.17;;;10.73;;
21665;SDS011;10994;45.486;9.190;2022-10-22T05:00:08;15.53;;;10.93;;
21665;SDS011;10994;45.486;9.190;2022-10-22T05:02:34;17.87;;;11.87;;
21665;SDS011;10994;45.486;9.190;2022-10-22T05:05:00;12.03;;;10.43;;
21665;SDS011;10994;45.486;9.190;2022-10-22T05:07:26;12.40;;;10.67;;
21665;SDS011;10994;45.486;9.190;2022-10-22T05:09:52;12.80;;;11.20;;
21665;SDS011;10994;45.486;9.190;2022-10-22T05:12:18;15.40;;;11.17;;
21665;SDS011;10994;45.486;9.190;2022-10-22T05:14:44;14.07;;;11.07;;
21665;SDS011;10994;45.486;9.190;2022-10-22T05:17:09;15.23;;;11.23;;
21665;SDS011;10994;45.486;9.190;2022-10-22T05:19:35;14.10;;;11.40;;
21665;SDS011;10994;45.486;9.190;2022-10-22T05:22:02;16.93;;;11.63;;
21665;SDS011;10994;45.486;9.190;2022-10-22T05:24:29;12.73;;;11.40;;
21665;SDS011;10994;45.486;9.190;2022-10-22T05:26:57;18.40;;;12.27;;
21665;SDS011;10994;45.486;9.190;2022-10-22T05:29:24;15.40;;;12.07;;
21665;SDS011;10994;45.486;9.190;2022-10-22T05:31:50;16.60;;;11.30;;
21665;SDS011;10994;45.486;9.190;2022-10-22T05:34:17;14.77;;;11.67;;
21665;SDS011;10994;45.486;9.190;2022-10-22T05:36:43;14.87;;;11.70;;
21665;SDS011;10994;45.486;9.190;2022-10-22T05:39:09;13.97;;;10.97;;
21665;SDS011;10994;45.486;9.190;2022-10-22T05:41:34;15.40;;;11.60;;
21665;SDS011;10994;45.486;9.190;2022-10-22T05:44:01;13.77;;;11.63;;
21665;SDS011;10994;45.486;9.190;2022-10-22T05:46:28;14.10;;;11.50;;
21665;SDS011;10994;45.486;9.190;2022-10-22T05:48:58;15.13;;;11.73;;
21665;SDS011;10994;45.486;9.190;2022-10-22T05:51:26;16.07;;;11.60;;
21665;SDS011;10994;45.486;9.190;2022-10-22T05:53:54;14.73;;;11.77;;
21665;SDS011;10994;45.486;9.190;2022-10-22T05:56:25;16.43;;;10.97;;
21665;SDS011;10994;45.486;9.190;2022-10-22T05:58:53;15.93;;;11.63;;
21665;SDS011;10994;45.486;9.190;2022-10-22T06:01:24;12.80;;;11.13;;
21665;SDS011;10994;45.486;9.190;2022-10-22T06:03:52;14.60;;;10.83;;
21665;SDS011;10994;45.486;9.190;2022-10-22T06:08:47;13.67;;;11.13;;
21665;SDS011;10994;45.486;9.190;2022-10-22T06:11:14;12.57;;;10.97;;
21665;SDS011;10994;45.486;9.190;2022-10-22T06:13:42;14.20;;;11.67;;
21665;SDS011;10994;45.486;9.190;2022-10-22T06:16:14;15.97;;;11.87;;
21665;SDS011;10994;45.486;9.190;2022-10-22T06:18:40;13.47;;;11.27;;
21665;SDS011;10994;45.486;9.190;2022-10-22T06:21:07;14.13;;;11.23;;
21665;SDS011;10994;45.486;9.190;2022-10-22T06:23:38;12.23;;;10.63;;
21665;SDS011;10994;45.486;9.190;2022-10-22T06:26:04;15.97;;;11.83;;
21665;SDS011;10994;45.486;9.190;2022-10-22T06:28:30;15.70;;;11.87;;
21665;SDS011;10994;45.486;9.190;2022-10-22T06:30:57;14.93;;;11.70;;
21665;SDS011;10994;45.486;9.190;2022-10-22T06:33:24;15.63;;;12.10;;
21665;SDS011;10994;45.486;9.190;2022-10-22T06:35:51;16.23;;;11.63;;
21665;SDS011;10994;45.486;9.190;2022-10-22T06:38:17;15.13;;;11.50;;
21665;SDS011;10994;45.486;9.190;2022-10-22T06:40:43;14.67;;;10.77;;
21665;SDS011;10994;45.486;9.190;2022-10-22T06:43:09;15.23;;;12.03;;
21665;SDS011;10994;45.486;9.190;2022-10-22T06:45:36;13.13;;;11.37;;
21665;SDS011;10994;45.486;9.190;2022-10-22T06:48:02;13.77;;;11.07;;
21665;SDS011;10994;45.486;9.190;2022-10-22T06:50:28;12.63;;;11.00;;
21665;SDS011;10994;45.486;9.190;2022-10-22T06:52:53;15.47;;;11.33;;
21665;SDS011;10994;45.486;9.190;2022-10-22T06:55:19;13.97;;;11.87;;
21665;SDS011;10994;45.486;9.190;2022-10-22T06:57:45;18.00;;;11.07;;
21665;SDS011;10994;45.486;9.190;2022-10-22T07:00:10;14.77;;;11.57;;
21665;SDS011;10994;45.486;9.190;2022-10-22T07:02:37;15.77;;;12.63;;
21665;SDS011;10994;45.486;9.190;2022-10-22T07:05:02;13.53;;;11.90;;
21665;SDS011;10994;45.486;9.190;2022-10-22T07:07:28;14.33;;;11.63;;
21665;SDS011;10994;45.486;9.190;2022-10-22T07:09:54;14.80;;;11.67;;
21665;SDS011;10994;45.486;9.190;2022-10-22T07:12:19;15.40;;;11.80;;
21665;SDS011;10994;45.486;9.190;2022-10-22T07:14:45;16.47;;;11.83;;
21665;SDS011;10994;45.486;9.190;2022-10-22T07:17:11;14.27;;;12.50;;
21665;SDS011;10994;45.486;9.190;2022-10-22T07:19:36;18.23;;;12.53;;
21665;SDS011;10994;45.486;9.190;2022-10-22T07:22:02;19.27;;;12.93;;
21665;SDS011;10994;45.486;9.190;2022-10-22T07:24:28;21.97;;;14.97;;
21665;SDS011;10994;45.486;9.190;2022-10-22T07:26:53;17.97;;;13.43;;
21665;SDS011;10994;45.486;9.190;2022-10-22T07:29:19;19.17;;;13.93;;
21665;SDS011;10994;45.486;9.190;2022-10-22T07:31:45;18.00;;;14.67;;
21665;SDS011;10994;45.486;9.190;2022-10-22T07:34:10;20.17;;;14.13;;
21665;SDS011;10994;45.486;9.190;2022-10-22T07:36:36;16.97;;;13.67;;
21665;SDS011;10994;45.486;9.190;2022-10-22T07:39:02;20.00;;;14.47;;
21665;SDS011;10994;45.486;9.190;2022-10-22T07:41:28;19.27;;;14.77;;
21665;SDS011;10994;45.486;9.190;2022-10-22T07:43:55;21.20;;;15.03;;
21665;SDS011;10994;45.486;9.190;2022-10-22T07:46:22;19.30;;;14.27;;
21665;SDS011;10994;45.486;9.190;2022-10-22T07:48:48;16.53;;;14.80;;
21665;SDS011;10994;45.486;9.190;2022-10-22T07:51:15;24.20;;;18.67;;
21665;SDS011;10994;45.486;9.190;2022-10-22T07:53:41;25.23;;;17.23;;
21665;SDS011;10994;45.486;9.190;2022-10-22T07:56:07;20.07;;;16.00;;
21665;SDS011;10994;45.486;9.190;2022-10-22T07:58:33;23.30;;;16.33;;
21665;SDS011;10994;45.486;9.190;2022-10-22T08:01:00;21.13;;;14.83;;
21665;SDS011;10994;45.486;9.190;2022-10-22T08:03:26;19.70;;;15.40;;
21665;SDS011;10994;45.486;9.190;2022-10-22T08:05:53;22.07;;;16.33;;
21665;SDS011;10994;45.486;9.190;2022-10-22T08:08:19;18.43;;;13.93;;
21665;SDS011;10994;45.486;9.190;2022-10-22T08:10:46;17.67;;;14.37;;
21665;SDS011;10994;45.486;9.190;2022-10-22T08:13:13;16.43;;;13.87;;
21665;SDS011;10994;45.486;9.190;2022-10-22T08:15:40;17.43;;;13.83;;
21665;SDS011;10994;45.486;9.190;2022-10-22T08:18:06;16.10;;;13.43;;
21665;SDS011;10994;45.486;9.190;2022-10-22T08:20:32;17.07;;;14.07;;
21665;SDS011;10994;45.486;9.190;2022-10-22T08:22:58;18.70;;;14.47;;
21665;SDS011;10994;45.486;9.190;2022-10-22T08:25:24;17.70;;;13.53;;
21665;SDS011;10994;45.486;9.190;2022-10-22T08:27:49;17.27;;;13.00;;
21665;SDS011;10994;45.486;9.190;2022-10-22T08:30:15;15.17;;;13.57;;
21665;SDS011;10994;45.486;9.190;2022-10-22T08:32:41;15.67;;;13.63;;
21665;SDS011;10994;45.486;9.190;2022-10-22T08:35:07;16.50;;;13.93;;
21665;SDS011;10994;45.486;9.190;2022-10-22T08:37:33;18.70;;;13.53;;
21665;SDS011;10994;45.486;9.190;2022-10-22T08:39:59;18.87;;;14.47;;
21665;SDS011;10994;45.486;9.190;2022-10-22T08:45:33;16.23;;;13.90;;
21665;SDS011;10994;45.486;9.190;2022-10-22T08:50:51;21.40;;;13.37;;
21665;SDS011;10994;45.486;9.190;2022-10-22T08:53:21;15.03;;;12.63;;
21665;SDS011;10994;45.486;9.190;2022-10-22T08:55:56;16.27;;;13.23;;
21665;SDS011;10994;45.486;9.190;2022-10-22T08:58:31;16.33;;;12.03;;
21665;SDS011;10994;45.486;9.190;2022-10-22T09:01:09;14.33;;;12.03;;
21665;SDS011;10994;45.486;9.190;2022-10-22T09:06:26;15.53;;;12.00;;
21665;SDS011;10994;45.486;9.190;2022-10-22T09:08:53;15.90;;;12.07;;
21665;SDS011;10994;45.486;9.190;2022-10-22T09:11:32;14.97;;;12.03;;
21665;SDS011;10994;45.486;9.190;2022-10-22T09:13:59;22.00;;;13.77;;
21665;SDS011;10994;45.486;9.190;2022-10-22T09:24:45;15.07;;;11.83;;
21665;SDS011;10994;45.486;9.190;2022-10-22T09:27:17;15.63;;;11.63;;
21665;SDS011;10994;45.486;9.190;2022-10-22T09:29:46;15.90;;;11.47;;
21665;SDS011;10994;45.486;9.190;2022-10-22T09:32:13;15.37;;;12.60;;
21665;SDS011;10994;45.486;9.190;2022-10-22T09:34:39;17.47;;;12.67;;
21665;SDS011;10994;45.486;9.190;2022-10-22T09:37:08;14.63;;;12.40;;
21665;SDS011;10994;45.486;9.190;2022-10-22T09:39:39;16.77;;;12.23;;
21665;SDS011;10994;45.486;9.190;2022-10-22T09:42:09;16.30;;;12.40;;
21665;SDS011;10994;45.486;9.190;2022-10-22T09:44:36;19.00;;;13.80;;
21665;SDS011;10994;45.486;9.190;2022-10-22T09:47:03;18.33;;;13.60;;
21665;SDS011;10994;45.486;9.190;2022-10-22T09:49:32;17.57;;;13.73;;
21665;SDS011;10994;45.486;9.190;2022-10-22T09:51:59;16.67;;;13.93;;
21665;SDS011;10994;45.486;9.190;2022-10-22T09:57:02;17.80;;;13.27;;
21665;SDS011;10994;45.486;9.190;2022-10-22T09:59:32;19.17;;;14.87;;
21665;SDS011;10994;45.486;9.190;2022-10-22T10:04:39;20.97;;;14.87;;
21665;SDS011;10994;45.486;9.190;2022-10-22T10:09:46;20.57;;;14.23;;
21665;SDS011;10994;45.486;9.190;2022-10-22T10:14:52;15.40;;;12.73;;
21665;SDS011;10994;45.486;9.190;2022-10-22T10:20:43;19.17;;;13.80;;
21665;SDS011;10994;45.486;9.190;2022-10-22T10:23:15;18.40;;;14.03;;
21665;SDS011;10994;45.486;9.190;2022-10-22T10:28:33;20.07;;;15.77;;
21665;SDS011;10994;45.486;9.190;2022-10-22T10:31:15;18.50;;;14.37;;
21665;SDS011;10994;45.486;9.190;2022-10-22T10:33:59;18.87;;;15.00;;
21665;SDS011;10994;45.486;9.190;2022-10-22T10:39:19;20.20;;;14.47;;
21665;SDS011;10994;45.486;9.190;2022-10-22T10:42:19;20.17;;;14.27;;
21665;SDS011;10994;45.486;9.190;2022-10-22T10:50:29;17.60;;;14.37;;
21665;SDS011;10994;45.486;9.190;2022-10-22T10:58:41;21.27;;;15.23;;
21665;SDS011;10994;45.486;9.190;2022-10-22T11:06:48;20.47;;;14.93;;
21665;SDS011;10994;45.486;9.190;2022-10-22T11:09:20;20.63;;;15.82;;
21665;SDS011;10994;45.486;9.190;2022-10-22T11:12:20;18.80;;;14.93;;
21665;SDS011;10994;45.486;9.190;2022-10-22T11:17:23;18.83;;;15.73;;
21665;SDS011;10994;45.486;9.190;2022-10-22T11:20:11;22.27;;;14.77;;
21665;SDS011;10994;45.486;9.190;2022-10-22T11:22:43;18.75;;;15.10;;
21665;SDS011;10994;45.486;9.190;2022-10-22T11:25:37;26.45;;;16.67;;
21665;SDS011;10994;45.486;9.190;2022-10-22T11:28:10;24.10;;;16.50;;
21665;SDS011;10994;45.486;9.190;2022-10-22T11:31:00;19.03;;;15.00;;
21665;SDS011;10994;45.486;9.190;2022-10-22T11:33:32;18.70;;;14.17;;
21665;SDS011;10994;45.486;9.190;2022-10-22T11:36:20;22.00;;;15.60;;
21665;SDS011;10994;45.486;9.190;2022-10-22T11:38:47;17.60;;;14.47;;
21665;SDS011;10994;45.486;9.190;2022-10-22T11:41:16;17.30;;;14.47;;
21665;SDS011;10994;45.486;9.190;2022-10-22T11:46:44;17.83;;;15.30;;
21665;SDS011;10994;45.486;9.190;2022-10-22T11:49:43;17.93;;;15.43;;
21665;SDS011;10994;45.486;9.190;2022-10-22T11:54:54;21.20;;;15.40;;
21665;SDS011;10994;45.486;9.190;2022-10-22T11:57:26;23.57;;;16.13;;
21665;SDS011;10994;45.486;9.190;2022-10-22T11:59:59;19.33;;;15.17;;
21665;SDS011;10994;45.486;9.190;2022-10-22T12:02:41;20.97;;;16.80;;
21665;SDS011;10994;45.486;9.190;2022-10-22T12:10:35;21.40;;;14.90;;
21665;SDS011;10994;45.486;9.190;2022-10-22T12:13:18;20.47;;;16.20;;
21665;SDS011;10994;45.486;9.190;2022-10-22T12:15:48;18.65;;;15.70;;
21665;SDS011;10994;45.486;9.190;2022-10-22T12:18:17;18.83;;;15.75;;
21665;SDS011;10994;45.486;9.190;2022-10-22T12:20:43;17.27;;;15.48;;
21665;SDS011;10994;45.486;9.190;2022-10-22T12:23:13;19.08;;;15.15;;
21665;SDS011;10994;45.486;9.190;2022-10-22T12:25:39;20.48;;;14.40;;
21665;SDS011;10994;45.486;9.190;2022-10-22T12:28:09;19.05;;;14.90;;
21665;SDS011;10994;45.486;9.190;2022-10-22T12:30:36;23.02;;;15.98;;
21665;SDS011;10994;45.486;9.190;2022-10-22T12:33:06;22.65;;;15.27;;
21665;SDS011;10994;45.486;9.190;2022-10-22T12:35:43;17.80;;;14.75;;
21665;SDS011;10994;45.486;9.190;2022-10-22T12:38:14;26.17;;;14.52;;
21665;SDS011;10994;45.486;9.190;2022-10-22T12:40:41;19.00;;;14.50;;
21665;SDS011;10994;45.486;9.190;2022-10-22T12:43:11;23.58;;;16.85;;
21665;SDS011;10994;45.486;9.190;2022-10-22T12:45:38;19.23;;;15.30;;
21665;SDS011;10994;45.486;9.190;2022-10-22T12:48:16;21.48;;;15.45;;
21665;SDS011;10994;45.486;9.190;2022-10-22T12:50:44;21.98;;;15.80;;
21665;SDS011;10994;45.486;9.190;2022-10-22T12:53:19;20.63;;;15.18;;
21665;SDS011;10994;45.486;9.190;2022-10-22T12:55:50;18.27;;;14.55;;
21665;SDS011;10994;45.486;9.190;2022-10-22T12:58:24;17.77;;;15.20;;
21665;SDS011;10994;45.486;9.190;2022-10-22T13:00:53;20.75;;;15.65;;
21665;SDS011;10994;45.486;9.190;2022-10-22T13:03:28;18.15;;;14.10;;
21665;SDS011;10994;45.486;9.190;2022-10-22T13:06:19;15.70;;;13.60;;
21665;SDS011;10994;45.486;9.190;2022-10-22T13:11:29;17.52;;;13.65;;
21665;SDS011;10994;45.486;9.190;2022-10-22T13:14:12;20.58;;;14.55;;
21665;SDS011;10994;45.486;9.190;2022-10-22T13:17:03;20.98;;;14.70;;
21665;SDS011;10994;45.486;9.190;2022-10-22T13:20:13;17.20;;;14.43;;
21665;SDS011;10994;45.486;9.190;2022-10-22T13:22:37;19.52;;;14.60;;
21665;SDS011;10994;45.486;9.190;2022-10-22T13:27:45;19.17;;;14.57;;
21665;SDS011;10994;45.486;9.190;2022-10-22T13:30:17;19.35;;;14.48;;
21665;SDS011;10994;45.486;9.190;2022-10-22T13:32:49;18.88;;;16.50;;
21665;SDS011;10994;45.486;9.190;2022-10-22T13:35:38;19.02;;;14.38;;
21665;SDS011;10994;45.486;9.190;2022-10-22T13:38:19;18.20;;;15.38;;
21665;SDS011;10994;45.486;9.190;2022-10-22T13:40:47;19.35;;;15.07;;
21665;SDS011;10994;45.486;9.190;2022-10-22T13:43:13;19.15;;;15.18;;
21665;SDS011;10994;45.486;9.190;2022-10-22T13:45:39;20.10;;;15.45;;
21665;SDS011;10994;45.486;9.190;2022-10-22T13:48:05;18.90;;;14.95;;
21665;SDS011;10994;45.486;9.190;2022-10-22T13:50:37;18.10;;;14.63;;
21665;SDS011;10994;45.486;9.190;2022-10-22T13:53:03;18.75;;;15.90;;
21665;SDS011;10994;45.486;9.190;2022-10-22T13:55:29;22.25;;;15.20;;
21665;SDS011;10994;45.486;9.190;2022-10-22T13:57:56;20.80;;;15.52;;
21665;SDS011;10994;45.486;9.190;2022-10-22T14:00:30;20.38;;;15.50;;
21665;SDS011;10994;45.486;9.190;2022-10-22T14:02:57;25.27;;;16.80;;
21665;SDS011;10994;45.486;9.190;2022-10-22T14:05:24;19.95;;;15.82;;
21665;SDS011;10994;45.486;9.190;2022-10-22T14:07:50;21.40;;;16.25;;
21665;SDS011;10994;45.486;9.190;2022-10-22T14:10:20;24.25;;;17.50;;
21665;SDS011;10994;45.486;9.190;2022-10-22T14:12:47;21.80;;;16.45;;
21665;SDS011;10994;45.486;9.190;2022-10-22T14:15:14;21.13;;;16.20;;
21665;SDS011;10994;45.486;9.190;2022-10-22T14:17:43;22.92;;;16.25;;
21665;SDS011;10994;45.486;9.190;2022-10-22T14:20:23;22.30;;;16.83;;
21665;SDS011;10994;45.486;9.190;2022-10-22T14:22:51;18.23;;;15.18;;
21665;SDS011;10994;45.486;9.190;2022-10-22T14:25:19;23.67;;;15.80;;
21665;SDS011;10994;45.486;9.190;2022-10-22T14:27:48;17.35;;;15.30;;
21665;SDS011;10994;45.486;9.190;2022-10-22T14:30:15;23.13;;;16.80;;
21665;SDS011;10994;45.486;9.190;2022-10-22T14:32:43;21.88;;;15.52;;
21665;SDS011;10994;45.486;9.190;2022-10-22T14:35:13;19.17;;;15.93;;
21665;SDS011;10994;45.486;9.190;2022-10-22T14:37:41;18.60;;;16.17;;
21665;SDS011;10994;45.486;9.190;2022-10-22T14:40:08;20.77;;;16.58;;
21665;SDS011;10994;45.486;9.190;2022-10-22T14:42:38;19.48;;;15.75;;
21665;SDS011;10994;45.486;9.190;2022-10-22T14:45:08;18.63;;;14.75;;
21665;SDS011;10994;45.486;9.190;2022-10-22T14:47:42;21.63;;;16.55;;
21665;SDS011;10994;45.486;9.190;2022-10-22T14:50:08;17.27;;;15.30;;
21665;SDS011;10994;45.486;9.190;2022-10-22T14:52:34;32.92;;;24.33;;
21665;SDS011;10994;45.486;9.190;2022-10-22T14:55:00;20.90;;;16.58;;
21665;SDS011;10994;45.486;9.190;2022-10-22T14:57:26;20.83;;;17.05;;
21665;SDS011;10994;45.486;9.190;2022-10-22T14:59:52;25.73;;;16.58;;
21665;SDS011;10994;45.486;9.190;2022-10-22T15:02:21;24.63;;;16.30;;
21665;SDS011;10994;45.486;9.190;2022-10-22T15:04:47;20.63;;;16.42;;
21665;SDS011;10994;45.486;9.190;2022-10-22T15:07:13;24.50;;;17.65;;
21665;SDS011;10994;45.486;9.190;2022-10-22T15:09:39;18.88;;;15.70;;
21665;SDS011;10994;45.486;9.190;2022-10-22T15:12:06;19.73;;;15.27;;
21665;SDS011;10994;45.486;9.190;2022-10-22T15:14:31;21.80;;;17.15;;
21665;SDS011;10994;45.486;9.190;2022-10-22T15:16:58;22.02;;;15.88;;
21665;SDS011;10994;45.486;9.190;2022-10-22T15:19:24;23.00;;;15.93;;
21665;SDS011;10994;45.486;9.190;2022-10-22T15:21:50;21.55;;;17.95;;
21665;SDS011;10994;45.486;9.190;2022-10-22T15:24:17;23.33;;;17.77;;
21665;SDS011;10994;45.486;9.190;2022-10-22T15:26:42;19.25;;;16.02;;
21665;SDS011;10994;45.486;9.190;2022-10-22T15:29:08;22.88;;;15.60;;
21665;SDS011;10994;45.486;9.190;2022-10-22T15:31:41;19.15;;;15.02;;
21665;SDS011;10994;45.486;9.190;2022-10-22T15:34:11;19.20;;;15.57;;
21665;SDS011;10994;45.486;9.190;2022-10-22T15:36:41;25.35;;;16.73;;
21665;SDS011;10994;45.486;9.190;2022-10-22T15:39:07;23.63;;;17.05;;
21665;SDS011;10994;45.486;9.190;2022-10-22T15:41:34;19.63;;;16.67;;
21665;SDS011;10994;45.486;9.190;2022-10-22T15:44:00;21.10;;;16.48;;
21665;SDS011;10994;45.486;9.190;2022-10-22T15:46:26;20.30;;;16.23;;
21665;SDS011;10994;45.486;9.190;2022-10-22T15:48:53;19.80;;;15.80;;
21665;SDS011;10994;45.486;9.190;2022-10-22T15:51:19;23.95;;;15.68;;
21665;SDS011;10994;45.486;9.190;2022-10-22T15:53:52;22.17;;;15.70;;
21665;SDS011;10994;45.486;9.190;2022-10-22T15:56:19;20.77;;;16.13;;
21665;SDS011;10994;45.486;9.190;2022-10-22T15:58:46;21.25;;;15.57;;
21665;SDS011;10994;45.486;9.190;2022-10-22T16:01:12;19.15;;;15.68;;
21665;SDS011;10994;45.486;9.190;2022-10-22T16:03:39;24.00;;;16.80;;
21665;SDS011;10994;45.486;9.190;2022-10-22T16:06:06;56.55;;;44.83;;
21665;SDS011;10994;45.486;9.190;2022-10-22T16:08:32;33.92;;;25.00;;
21665;SDS011;10994;45.486;9.190;2022-10-22T16:10:58;20.23;;;17.33;;
21665;SDS011;10994;45.486;9.190;2022-10-22T16:13:24;25.20;;;19.87;;
21665;SDS011;10994;45.486;9.190;2022-10-22T16:15:50;23.20;;;18.13;;
21665;SDS011;10994;45.486;9.190;2022-10-22T16:18:17;20.30;;;16.03;;
21665;SDS011;10994;45.486;9.190;2022-10-22T16:20:44;25.50;;;17.08;;